createdAt,value
2019-05-20T00:00:09.174Z,98686.06
2019-05-20T00:02:40.127Z,98684.23
2019-05-20T00:05:10.664Z,98679.30
2019-05-20T00:07:41.441Z,98680.86
2019-05-20T00:10:12.582Z,98683.36
2019-05-20T00:12:43.716Z,98685.24
2019-05-20T00:15:14.197Z,98679.02
2019-05-20T00:17:44.735Z,98677.81
2019-05-20T00:20:15.614Z,98687.89
2019-05-20T00:22:46.060Z,98688.09
2019-05-20T00:25:16.887Z,98681.76
2019-05-20T00:27:47.790Z,98678.09
2019-05-20T00:30:18.658Z,98680.69
2019-05-20T00:32:49.157Z,98668.36
2019-05-20T00:35:19.998Z,98670.95
2019-05-20T00:37:50.441Z,98672.34
2019-05-20T00:40:20.923Z,98680.59
2019-05-20T00:42:51.363Z,98686.52
2019-05-20T00:45:22.125Z,98687.36
2019-05-20T00:47:52.964Z,98684.27
2019-05-20T00:50:25.444Z,98681.63
2019-05-20T00:52:55.942Z,98689.17
2019-05-20T00:55:29.194Z,98679.43
2019-05-20T00:58:00.455Z,98682.52
2019-05-20T01:00:31.080Z,98683.99
2019-05-20T01:03:01.561Z,98678.02
2019-05-20T01:05:32.312Z,98684.72
2019-05-20T01:08:02.744Z,98683.22
2019-05-20T01:10:33.223Z,98687.25
2019-05-20T01:13:04.019Z,98689.00
2019-05-20T01:15:34.454Z,98682.50
2019-05-20T01:18:04.942Z,98680.09
2019-05-20T01:20:36.064Z,98680.37
2019-05-20T01:23:07.169Z,98683.88
2019-05-20T01:25:37.674Z,98688.13
2019-05-20T01:28:08.117Z,98689.25
2019-05-20T01:30:38.602Z,98686.78
2019-05-20T01:33:13.669Z,98684.90
2019-05-20T01:35:41.223Z,98684.31
2019-05-20T01:38:11.664Z,98691.77
2019-05-20T01:40:43.363Z,98684.78
2019-05-20T01:43:13.815Z,98684.05
2019-05-20T01:45:44.250Z,98679.00
2019-05-20T01:48:14.744Z,98684.81
2019-05-20T01:50:45.492Z,98685.44
2019-05-20T01:53:16.319Z,98676.05
2019-05-20T01:55:47.050Z,98683.90
2019-05-20T01:58:17.497Z,98686.19
2019-05-20T02:00:47.934Z,98686.80
2019-05-20T02:03:31.174Z,98688.56
2019-05-20T02:05:51.427Z,98695.16
2019-05-20T02:08:22.140Z,98691.23
2019-05-20T02:10:56.137Z,98685.16
2019-05-20T02:13:27.501Z,98678.42
2019-05-20T02:16:04.898Z,98677.80
2019-05-20T02:18:35.337Z,98682.05
2019-05-20T02:21:06.127Z,98692.79
2019-05-20T02:23:36.624Z,98688.13
2019-05-20T02:26:07.097Z,98686.78
2019-05-20T02:28:37.537Z,98688.88
2019-05-20T02:31:09.319Z,98687.84
2019-05-20T02:33:51.636Z,98697.44
2019-05-20T02:36:12.460Z,98700.33
2019-05-20T02:38:43.191Z,98697.33
2019-05-20T02:41:13.935Z,98684.31
2019-05-20T02:43:44.767Z,98682.37
2019-05-20T02:46:15.566Z,98685.98
2019-05-20T02:48:45.996Z,98683.30
2019-05-20T02:51:19.195Z,98683.20
2019-05-20T02:53:49.692Z,98672.25
2019-05-20T02:56:20.499Z,98671.55
2019-05-20T02:58:50.942Z,98672.19
2019-05-20T03:01:22.268Z,98670.10
2019-05-20T03:04:10.006Z,98678.47
2019-05-20T03:06:25.638Z,98675.19
2019-05-20T03:08:56.119Z,98677.54
2019-05-20T03:11:26.580Z,98671.43
2019-05-20T03:13:57.340Z,98676.59
2019-05-20T03:16:28.219Z,98673.20
2019-05-20T03:18:58.662Z,98672.88
2019-05-20T03:21:29.105Z,98679.70
2019-05-20T03:23:59.600Z,98688.17
2019-05-20T03:26:30.043Z,98682.50
2019-05-20T03:29:00.896Z,98689.80
2019-05-20T03:31:31.394Z,98693.73
2019-05-20T03:34:02.040Z,98691.67
2019-05-20T03:36:32.542Z,98685.67
2019-05-20T03:39:03.116Z,98688.47
2019-05-20T03:41:33.564Z,98687.86
2019-05-20T03:44:04.431Z,98683.73
2019-05-20T03:46:35.102Z,98683.09
2019-05-20T03:49:05.544Z,98692.39
2019-05-20T03:51:35.981Z,98695.70
2019-05-20T03:54:07.238Z,98690.66
2019-05-20T03:56:37.688Z,98693.44
2019-05-20T03:59:08.795Z,98700.55
2019-05-20T04:01:39.646Z,98702.84
2019-05-20T04:04:10.087Z,98694.67
2019-05-20T04:06:40.925Z,98693.55
2019-05-20T04:09:11.871Z,98695.30
2019-05-20T04:11:42.952Z,98699.83
2019-05-20T04:14:13.747Z,98696.78
2019-05-20T04:16:44.626Z,98697.48
2019-05-20T04:19:15.535Z,98700.48
2019-05-20T04:21:47.096Z,98696.03
2019-05-20T04:24:17.612Z,98690.98
2019-05-20T04:26:48.954Z,98691.19
2019-05-20T04:29:19.399Z,98697.08
2019-05-20T04:31:50.398Z,98692.62
2019-05-20T04:34:21.178Z,98698.91
2019-05-20T04:36:51.684Z,98695.09
2019-05-20T04:39:22.533Z,98691.27
2019-05-20T04:41:53.428Z,98697.05
2019-05-20T04:44:24.263Z,98689.59
2019-05-20T04:46:57.871Z,98697.25
2019-05-20T04:49:27.382Z,98693.00
2019-05-20T04:51:57.820Z,98692.48
2019-05-20T04:54:29.054Z,98690.81
2019-05-20T04:56:59.503Z,98695.98
2019-05-20T04:59:29.942Z,98701.56
2019-05-20T05:02:00.713Z,98706.09
2019-05-20T05:04:31.152Z,98712.28
2019-05-20T05:07:02.182Z,98709.16
2019-05-20T05:09:32.734Z,98703.53
2019-05-20T05:12:03.154Z,98695.13
2019-05-20T05:14:33.992Z,98697.47
2019-05-20T05:17:04.814Z,98699.59
2019-05-20T05:19:35.278Z,98698.50
2019-05-20T05:22:06.134Z,98691.63
2019-05-20T05:24:36.640Z,98690.56
2019-05-20T05:27:07.259Z,98697.42
2019-05-20T05:29:38.024Z,98696.34
2019-05-20T05:32:08.498Z,98693.99
2019-05-20T05:34:39.370Z,98697.70
2019-05-20T05:37:10.211Z,98702.56
2019-05-20T05:39:40.836Z,98699.45
2019-05-20T05:42:11.420Z,98698.59
2019-05-20T05:44:41.859Z,98704.41
2019-05-20T05:47:12.649Z,98698.48
2019-05-20T05:49:43.468Z,98697.67
2019-05-20T05:52:13.920Z,98701.56
2019-05-20T05:54:44.791Z,98704.33
2019-05-20T05:57:15.242Z,98705.75
2019-05-20T05:59:45.750Z,98710.33
2019-05-20T06:02:16.266Z,98711.95
2019-05-20T06:04:47.611Z,98708.05
2019-05-20T06:07:18.058Z,98712.78
2019-05-20T06:09:50.306Z,98712.63
2019-05-20T06:12:20.757Z,98710.81
2019-05-20T06:14:51.577Z,98709.45
2019-05-20T06:17:22.955Z,98713.85
2019-05-20T06:19:53.671Z,98714.50
2019-05-20T06:22:24.120Z,98712.88
2019-05-20T06:24:54.622Z,98713.48
2019-05-20T06:27:25.075Z,98714.16
2019-05-20T06:29:55.529Z,98721.91
2019-05-20T06:32:26.173Z,98717.19
2019-05-20T06:34:56.721Z,98720.11
2019-05-20T06:37:28.969Z,98725.40
2019-05-20T06:39:59.474Z,98723.23
2019-05-20T06:42:30.537Z,98729.23
2019-05-20T06:45:00.982Z,98734.22
2019-05-20T06:47:31.537Z,98734.96
2019-05-20T06:50:01.992Z,98743.25
2019-05-20T06:52:35.894Z,98729.28
2019-05-20T06:55:05.305Z,98729.28
2019-05-20T06:57:36.142Z,98741.78
2019-05-20T07:00:08.021Z,98737.77
2019-05-20T07:02:39.259Z,98738.41
2019-05-20T07:05:09.990Z,98734.15
2019-05-20T07:07:40.719Z,98737.31
2019-05-20T07:10:11.442Z,98732.88
2019-05-20T07:12:42.121Z,98732.88
2019-05-20T07:15:12.746Z,98743.57
2019-05-20T07:17:43.250Z,98747.62
2019-05-20T07:20:14.207Z,98747.09
2019-05-20T07:22:55.945Z,98756.80
2019-05-20T07:25:17.293Z,98762.20
2019-05-20T07:27:47.786Z,98762.20
2019-05-20T07:30:18.427Z,98754.09
2019-05-20T07:32:48.935Z,98749.04
2019-05-20T07:35:29.393Z,98759.37
2019-05-20T07:37:51.568Z,98758.93
2019-05-20T07:40:33.013Z,98754.03
2019-05-20T07:43:05.868Z,98754.03
2019-05-20T07:45:38.830Z,98754.47
2019-05-20T07:48:09.374Z,98749.42
2019-05-20T07:50:41.718Z,98755.27
2019-05-20T07:53:13.752Z,98748.48
2019-05-20T07:56:00.338Z,98748.06
2019-05-20T07:58:33.891Z,98752.22
2019-05-20T08:01:04.495Z,98752.78
2019-05-20T08:03:38.379Z,98744.31
2019-05-20T08:06:07.491Z,98740.98
2019-05-20T08:08:38.346Z,98743.69
2019-05-20T08:11:08.867Z,98741.73
2019-05-20T08:13:39.732Z,98738.81
2019-05-20T08:16:10.265Z,98732.31
2019-05-20T08:18:40.719Z,98738.31
2019-05-20T08:21:11.200Z,98743.61
2019-05-20T08:23:41.914Z,98741.19
2019-05-20T08:26:12.363Z,98735.84
2019-05-20T08:28:43.861Z,98732.39
2019-05-20T08:31:14.383Z,98734.08
2019-05-20T08:33:44.822Z,98741.07
2019-05-20T08:36:15.311Z,98733.48
2019-05-20T08:38:45.786Z,98733.06
2019-05-20T08:41:16.345Z,98730.22
2019-05-20T08:43:46.816Z,98724.16
2019-05-20T08:46:17.309Z,98728.47
2019-05-20T08:48:49.040Z,98729.41
2019-05-20T08:51:19.533Z,98728.78
2019-05-20T08:53:49.947Z,98727.73
2019-05-20T08:56:20.437Z,98737.59
2019-05-20T08:58:50.882Z,98743.87
2019-05-20T09:01:21.329Z,98746.94
2019-05-20T09:03:52.297Z,98739.47
2019-05-20T09:06:23.262Z,98741.39
2019-05-20T09:08:53.733Z,98746.05
2019-05-20T09:11:24.231Z,98746.98
2019-05-20T09:13:56.012Z,98746.35
2019-05-20T09:16:26.467Z,98738.95
2019-05-20T09:18:56.973Z,98744.16
2019-05-20T09:21:28.474Z,98740.09
2019-05-20T09:23:58.992Z,98741.52
2019-05-20T09:26:29.831Z,98738.31
2019-05-20T09:29:00.357Z,98738.14
2019-05-20T09:31:31.180Z,98742.30
2019-05-20T09:34:01.787Z,98743.91
2019-05-20T09:36:32.321Z,98743.87
2019-05-20T09:39:03.215Z,98745.80
2019-05-20T09:41:34.133Z,98742.83
2019-05-20T09:44:04.699Z,98736.56
2019-05-20T09:46:36.377Z,98731.61
2019-05-20T09:49:07.179Z,98732.06
2019-05-20T09:51:37.650Z,98726.73
2019-05-20T09:54:08.446Z,98713.99
2019-05-20T09:56:39.325Z,98727.56
2019-05-20T09:59:10.334Z,98726.17
2019-05-20T10:01:41.120Z,98726.08
2019-05-20T10:04:11.609Z,98728.21
2019-05-20T10:06:42.743Z,98734.42
2019-05-20T10:09:13.520Z,98737.91
2019-05-20T10:11:44.005Z,98738.09
2019-05-20T10:14:14.747Z,98729.80
2019-05-20T10:16:46.065Z,98723.02
2019-05-20T10:19:16.558Z,98723.84
2019-05-20T10:21:47.135Z,98719.46
2019-05-20T10:24:18.117Z,98717.80
2019-05-20T10:26:48.602Z,98725.92
2019-05-20T10:29:19.418Z,98725.63
2019-05-20T10:31:50.296Z,98713.30
2019-05-20T10:34:20.809Z,98721.98
2019-05-20T10:36:52.190Z,98722.98
2019-05-20T10:39:23.670Z,98717.87
2019-05-20T10:41:55.071Z,98717.27
2019-05-20T10:44:27.142Z,98715.39
2019-05-20T10:46:57.568Z,98711.56
2019-05-20T10:49:28.133Z,98708.88
2019-05-20T10:51:58.578Z,98717.11
2019-05-20T10:54:29.024Z,98710.07
2019-05-20T10:56:59.926Z,98716.95
2019-05-20T10:59:30.630Z,98718.38
2019-05-20T11:02:01.407Z,98706.16
2019-05-20T11:04:35.329Z,98704.69
2019-05-20T11:07:04.071Z,98704.22
2019-05-20T11:09:34.507Z,98702.29
2019-05-20T11:12:05.417Z,98705.55
2019-05-20T11:14:36.218Z,98705.02
2019-05-20T11:17:06.950Z,98708.28
2019-05-20T11:19:37.454Z,98703.66
2019-05-20T11:22:08.268Z,98713.48
2019-05-20T11:24:38.712Z,98709.64
2019-05-20T11:27:09.216Z,98711.50
2019-05-20T11:29:39.667Z,98707.70
2019-05-20T11:32:10.129Z,98708.55
2019-05-20T11:34:40.603Z,98715.64
2019-05-20T11:37:11.047Z,98707.69
2019-05-20T11:39:41.770Z,98713.09
2019-05-20T11:42:12.257Z,98703.47
2019-05-20T11:44:42.744Z,98700.38
2019-05-20T11:47:13.562Z,98703.31
2019-05-20T11:49:44.491Z,98696.38
2019-05-20T11:52:15.329Z,98697.28
2019-05-20T11:54:46.082Z,98698.52
2019-05-20T11:57:16.563Z,98690.87
2019-05-20T11:59:48.254Z,98684.80
2019-05-20T12:02:18.764Z,98678.48
2019-05-20T12:04:49.673Z,98679.88
2019-05-20T12:07:20.121Z,98684.25
2019-05-20T12:09:51.258Z,98676.39
2019-05-20T12:12:21.725Z,98685.56
2019-05-20T12:14:52.671Z,98674.47
2019-05-20T12:17:23.139Z,98664.89
2019-05-20T12:19:53.645Z,98662.19
2019-05-20T12:22:24.192Z,98660.49
2019-05-20T12:24:54.993Z,98659.56
2019-05-20T12:27:25.846Z,98657.60
2019-05-20T12:29:56.887Z,98658.83
2019-05-20T12:32:27.603Z,98659.17
2019-05-20T12:34:58.386Z,98645.78
2019-05-20T12:37:28.828Z,98644.65
2019-05-20T12:40:07.111Z,98646.98
2019-05-20T12:42:31.903Z,98637.65
2019-05-20T12:45:02.350Z,98633.39
2019-05-20T12:47:32.892Z,98636.99
2019-05-20T12:50:03.379Z,98629.78
2019-05-20T12:52:33.827Z,98633.81
2019-05-20T12:55:08.391Z,98633.17
2019-05-20T12:57:36.937Z,98627.13
2019-05-20T13:00:07.841Z,98631.67
2019-05-20T13:02:38.308Z,98633.52
2019-05-20T13:05:08.892Z,98630.38
2019-05-20T13:07:39.680Z,98628.66
2019-05-20T13:10:27.980Z,98627.81
2019-05-20T13:12:42.979Z,98625.55
2019-05-20T13:15:13.587Z,98624.28
2019-05-20T13:17:45.433Z,98620.50
2019-05-20T13:20:16.562Z,98616.16
2019-05-20T13:22:46.994Z,98620.70
2019-05-20T13:25:17.925Z,98623.58
2019-05-20T13:27:48.721Z,98622.91
2019-05-20T13:30:19.732Z,98620.87
2019-05-20T13:32:50.533Z,98612.50
2019-05-20T13:35:21.025Z,98610.03
2019-05-20T13:37:51.799Z,98598.94
2019-05-20T13:40:22.638Z,98591.94
2019-05-20T13:42:53.513Z,98591.54
2019-05-20T13:45:23.945Z,98582.66
2019-05-20T13:47:54.781Z,98578.02
2019-05-20T13:50:25.385Z,98583.78
2019-05-20T13:52:56.112Z,98579.27
2019-05-20T13:55:26.848Z,98582.61
2019-05-20T13:57:57.337Z,98586.28
2019-05-20T14:00:27.774Z,98580.45
2019-05-20T14:02:59.163Z,98579.96
2019-05-20T14:05:29.802Z,98578.44
2019-05-20T14:08:00.236Z,98574.61
2019-05-20T14:10:31.665Z,98570.81
2019-05-20T14:13:02.250Z,98569.23
2019-05-20T14:15:33.117Z,98571.72
2019-05-20T14:18:03.553Z,98562.72
2019-05-20T14:20:34.038Z,98560.02
2019-05-20T14:23:04.471Z,98562.28
2019-05-20T14:25:34.909Z,98560.37
2019-05-20T14:28:06.516Z,98552.77
2019-05-20T14:30:37.410Z,98546.20
2019-05-20T14:33:08.300Z,98541.83
2019-05-20T14:35:38.805Z,98545.91
2019-05-20T14:38:09.557Z,98541.56
2019-05-20T14:40:40.121Z,98541.27
2019-05-20T14:43:11.271Z,98538.77
2019-05-20T14:45:41.732Z,98538.77
2019-05-20T14:48:12.281Z,98528.58
2019-05-20T14:50:42.766Z,98525.32
2019-05-20T14:53:14.003Z,98519.30
2019-05-20T14:55:44.423Z,98515.81
2019-05-20T14:58:14.914Z,98518.30
2019-05-20T15:00:45.512Z,98518.39
2019-05-20T15:03:16.748Z,98513.55
2019-05-20T15:05:47.600Z,98511.70
2019-05-20T15:08:18.004Z,98510.66
2019-05-20T15:10:48.485Z,98514.55
2019-05-20T15:13:19.368Z,98514.03
2019-05-20T15:15:50.253Z,98506.66
2019-05-20T15:18:20.688Z,98503.16
2019-05-20T15:20:51.182Z,98494.69
2019-05-20T15:23:21.629Z,98493.03
2019-05-20T15:25:52.071Z,98487.06
2019-05-20T15:28:22.675Z,98488.14
2019-05-20T15:30:53.538Z,98482.87
2019-05-20T15:33:23.977Z,98482.03
2019-05-20T15:35:54.972Z,98485.81
2019-05-20T15:38:25.420Z,98493.19
2019-05-20T15:40:55.854Z,98496.47
2019-05-20T15:43:26.354Z,98488.30
2019-05-20T15:45:57.166Z,98502.83
2019-05-20T15:48:27.623Z,98500.70
2019-05-20T15:50:58.150Z,98502.39
2019-05-20T15:53:28.972Z,98501.03
2019-05-20T15:55:59.425Z,98499.39
2019-05-20T15:58:29.943Z,98496.16
2019-05-20T16:01:00.387Z,98499.98
2019-05-20T16:03:30.853Z,98490.73
2019-05-20T16:06:01.346Z,98500.30
2019-05-20T16:08:32.058Z,98499.45
2019-05-20T16:11:06.437Z,98498.93
2019-05-20T16:13:34.721Z,98494.03
2019-05-20T16:16:05.202Z,98495.88
2019-05-20T16:18:36.024Z,98505.97
2019-05-20T16:21:06.868Z,98504.05
2019-05-20T16:23:37.323Z,98510.30
2019-05-20T16:26:07.769Z,98528.78
2019-05-20T16:28:38.976Z,98555.23
2019-05-20T16:31:09.509Z,98554.56
2019-05-20T16:33:39.943Z,98563.97
2019-05-20T16:36:10.429Z,98564.94
2019-05-20T16:38:40.876Z,98579.15
2019-05-20T16:41:11.301Z,98586.76
2019-05-20T16:43:42.139Z,98589.67
2019-05-20T16:46:12.578Z,98596.99
2019-05-20T16:48:43.391Z,98602.72
2019-05-20T16:51:14.016Z,98612.56
2019-05-20T16:53:44.761Z,98611.02
2019-05-20T16:56:15.641Z,98614.54
2019-05-20T16:58:46.314Z,98620.25
2019-05-20T17:01:17.508Z,98626.73
2019-05-20T17:03:48.115Z,98633.30
2019-05-20T17:06:19.244Z,98640.11
2019-05-20T17:08:49.690Z,98649.80
2019-05-20T17:11:20.129Z,98654.77
2019-05-20T17:13:50.629Z,98649.03
2019-05-20T17:16:22.006Z,98650.41
2019-05-20T17:18:53.524Z,98652.33
2019-05-20T17:21:24.006Z,98647.97
2019-05-20T17:23:54.529Z,98645.92
2019-05-20T17:26:27.008Z,98648.42
2019-05-20T17:28:57.841Z,98646.36
2019-05-20T17:31:30.824Z,98643.92
2019-05-20T17:34:01.390Z,98651.98
2019-05-20T17:36:32.608Z,98646.64
2019-05-20T17:39:03.223Z,98652.87
2019-05-20T17:41:34.651Z,98652.11
2019-05-20T17:44:08.057Z,98655.12
2019-05-20T17:46:39.270Z,98657.37
2019-05-20T17:49:15.652Z,98651.73
2019-05-20T17:51:46.107Z,98653.01
2019-05-20T17:54:18.155Z,98654.22
2019-05-20T17:56:49.389Z,98643.72
2019-05-20T17:59:22.823Z,98635.09
2019-05-20T18:01:53.592Z,98631.95
2019-05-20T18:04:24.485Z,98636.23
2019-05-20T18:06:56.382Z,98641.23
2019-05-20T18:09:29.486Z,98639.03
2019-05-20T18:12:00.299Z,98649.27
2019-05-20T18:14:31.390Z,98639.13
2019-05-20T18:17:01.900Z,98649.26
2019-05-20T18:19:33.152Z,98651.92
2019-05-20T18:22:03.589Z,98651.52
2019-05-20T18:24:34.020Z,98653.16
2019-05-20T18:27:04.943Z,98654.03
2019-05-20T18:29:36.356Z,98651.13
2019-05-20T18:32:06.805Z,98655.63
2019-05-20T18:34:37.664Z,98650.61
2019-05-20T18:37:08.389Z,98648.12
2019-05-20T18:39:42.421Z,98645.42
2019-05-20T18:42:14.382Z,98642.95
2019-05-20T18:44:45.108Z,98636.69
2019-05-20T18:47:15.940Z,98632.73
2019-05-20T18:49:46.837Z,98627.66
2019-05-20T18:52:17.276Z,98632.03
2019-05-20T18:54:47.903Z,98634.47
2019-05-20T18:57:19.108Z,98636.78
2019-05-20T18:59:49.562Z,98629.92
2019-05-20T19:02:22.322Z,98632.33
2019-05-20T19:04:53.532Z,98623.91
2019-05-20T19:07:24.309Z,98622.51
2019-05-20T19:09:55.176Z,98623.86
2019-05-20T19:12:26.366Z,98625.46
2019-05-20T19:14:57.298Z,98623.25
2019-05-20T19:17:27.788Z,98618.84
2019-05-20T19:19:58.265Z,98625.94
2019-05-20T19:22:33.012Z,98626.53
2019-05-20T19:25:05.101Z,98620.55
2019-05-20T19:27:36.329Z,98630.58
2019-05-20T19:30:07.684Z,98631.94
2019-05-20T19:32:38.279Z,98634.93
2019-05-20T19:35:09.969Z,98631.59
2019-05-20T19:37:41.030Z,98625.66
2019-05-20T19:40:12.036Z,98623.09
2019-05-20T19:46:12.191Z,98641.84
2019-05-20T19:48:50.139Z,98650.67
2019-05-20T19:51:22.764Z,98650.67
2019-05-20T19:53:53.198Z,98647.91
2019-05-20T19:56:23.940Z,98652.48
2019-05-20T19:58:54.472Z,98665.84
2019-05-20T20:01:25.344Z,98665.84
2019-05-20T20:03:56.451Z,98679.91
2019-05-20T20:06:31.457Z,98676.64
2019-05-20T20:09:02.346Z,98674.03
2019-05-20T20:11:33.165Z,98670.07
2019-05-20T20:14:03.706Z,98658.44
2019-05-20T20:16:36.316Z,98655.50
2019-05-20T20:19:08.929Z,98657.39
2019-05-20T20:21:42.143Z,98685.34
2019-05-20T20:24:12.698Z,98676.75
2019-05-20T20:26:43.605Z,98675.05
2019-05-20T20:29:14.055Z,98675.62
2019-05-20T20:31:44.906Z,98669.64
2019-05-20T20:34:15.528Z,98664.30
2019-05-20T20:36:46.271Z,98651.24
2019-05-20T20:39:16.842Z,98664.00
2019-05-20T20:41:48.544Z,98662.05
2019-05-20T20:44:19.126Z,98649.95
2019-05-20T20:46:49.628Z,98640.92
2019-05-20T20:49:20.079Z,98639.92
2019-05-20T20:51:50.530Z,98644.39
2019-05-20T20:54:21.314Z,98641.45
2019-05-20T20:56:51.808Z,98633.05
2019-05-20T20:59:22.370Z,98638.27
2019-05-20T21:01:56.790Z,98640.73
2019-05-20T21:04:25.389Z,98639.79
2019-05-20T21:06:56.230Z,98643.67
2019-05-20T21:09:27.018Z,98636.73
2019-05-20T21:11:57.566Z,98634.70
2019-05-20T21:14:28.307Z,98629.48
2019-05-20T21:16:59.118Z,98640.11
2019-05-20T21:19:29.912Z,98643.08
2019-05-20T21:22:00.365Z,98639.33
2019-05-20T21:24:31.217Z,98636.81
2019-05-20T21:27:02.059Z,98634.98
2019-05-20T21:29:32.887Z,98631.95
2019-05-20T21:32:03.723Z,98618.20
2019-05-20T21:34:34.182Z,98618.70
2019-05-20T21:37:04.716Z,98611.26
2019-05-20T21:39:35.501Z,98602.67
2019-05-20T21:42:06.342Z,98598.41
2019-05-20T21:44:36.773Z,98592.29
2019-05-20T21:47:07.276Z,98587.99
2019-05-20T21:49:37.714Z,98586.41
2019-05-20T21:52:08.166Z,98583.48
2019-05-20T21:54:38.656Z,98583.48
2019-05-20T21:57:09.100Z,98600.69
2019-05-20T21:59:39.730Z,98606.20
2019-05-20T22:02:10.636Z,98609.16
2019-05-20T22:04:41.378Z,98592.71
2019-05-20T22:07:12.104Z,98591.00
2019-05-20T22:09:42.909Z,98591.23
2019-05-20T22:12:13.656Z,98590.87
2019-05-20T22:14:45.623Z,98589.64
2019-05-20T22:17:16.074Z,98593.00
2019-05-20T22:19:46.547Z,98590.25
2019-05-20T22:22:29.489Z,98595.53
2019-05-20T22:25:00.432Z,98594.36
2019-05-20T22:27:31.273Z,98589.02
2019-05-20T22:30:02.168Z,98593.82
2019-05-20T22:32:32.608Z,98591.18
2019-05-20T22:35:03.100Z,98600.64
2019-05-20T22:37:33.545Z,98596.28
2019-05-20T22:40:03.989Z,98594.42
2019-05-20T22:42:34.481Z,98589.05
2019-05-20T22:45:05.510Z,98585.54
2019-05-20T22:47:35.946Z,98584.01
2019-05-20T22:50:06.533Z,98584.01
2019-05-20T22:52:36.970Z,98588.30
2019-05-20T22:55:07.938Z,98586.71
2019-05-20T22:57:38.433Z,98582.54
2019-05-20T23:00:09.116Z,98578.42
2019-05-20T23:02:39.980Z,98578.97
2019-05-20T23:05:10.462Z,98575.72
2019-05-20T23:07:41.215Z,98585.30
2019-05-20T23:10:12.361Z,98580.38
2019-05-20T23:12:43.266Z,98579.15
2019-05-20T23:15:13.845Z,98570.69
2019-05-20T23:17:44.711Z,98576.45
2019-05-20T23:20:15.197Z,98578.42
2019-05-20T23:22:46.361Z,98569.45
2019-05-20T23:25:16.806Z,98566.75
2019-05-20T23:27:47.285Z,98565.46
2019-05-20T23:30:17.727Z,98562.91
2019-05-20T23:32:48.175Z,98567.52
2019-05-20T23:35:18.670Z,98562.61
2019-05-20T23:37:49.111Z,98564.11
2019-05-20T23:40:19.562Z,98563.77
2019-05-20T23:42:50.402Z,98565.91
2019-05-20T23:45:20.867Z,98569.03
2019-05-20T23:47:51.526Z,98565.04
2019-05-20T23:50:22.305Z,98560.20
2019-05-20T23:52:53.175Z,98568.06
2019-05-20T23:55:23.617Z,98570.53
2019-05-20T23:57:54.067Z,98575.72
